La Honda, California
Current Conditions -  °F | °C
As of 10:47 AM on Monday 20 Oct 2014 (Local Time) from KPAO Reporting Station
Overcast Overcast  
Wind Chill: 70°   Ceiling: 3000
Heat Index: 70°   Visibility: 10mi
Dew Point: 57°   Wind: 15mph
Humidity: 64%   Direction: 310°NW
Pressure: 29.97"   Gusts: NA
Location:  37.32°N, 122.27°W
Report Text: KPAO 201747Z 31013KT 10SM FEW005 SCT020 OVC030 21/14 A2997
Loading
Personal Weather Stations






























Interactive Weather Map
Tropical Storm Tracking
New forecast layout! Learn more

10-Day Weather Forecast

Advertisements
Track Severe Weather on mobile